CYGE

Golden Airport

Golden, British Columbia, Canada
METAR CYGE 140000Z 15011G16KT 8SM -SHRA BKN009 OVC025 01/M00 A2993 RMK ST6SC2 VIS E LWR CVCTV CLD EMBD SLP166
Observed Flight Rules
Dec-14 @ 00:00 UTC (45 minutes ago) Instrument Flight Rules
Wind Visibility Clouds Conditions
150° at 11 knots
 Gusting to 16 knots
8 miles
  • Broken at 900' AGL
  • Overcast at 2,500' AGL
  • Light Rain
Temperatures Readings
Current 1°C / 34°F
Dewpoint 0°C / 32°F
Humidity 93%
Altimeter 29.93" Hg
Pressure 1016.6 hPa
Elevation 785
METAR CYGE 140000Z 15011G16KT 8SM -SHRA BKN009 OVC025 01/M00 A2993 RMK ST6SC2 VIS E LWR CVCTV CLD EMBD SLP166
Observed Flight Rules
Dec-14 @ 00:00 UTC
(45 minutes ago)
IFR
Wind Visibility
150° at 11 knots
 Gusting to 16 knots
8 miles
Clouds
  • Broken at 900' AGL
  • Overcast at 2,500' AGL
Conditions
  • Light Rain
Temperature Dewpoint
1°C / 34°F 0°C / 32°F
Humidity Altimeter Pressure
93% 29.93" Hg 1016.6 hPa